Time,TemperatureF,DewpointF,PressureIn,WindDirection,WindDirectionDegrees,WindSpeedMPH,WindSpeedGustMPH,Humidity,HourlyPrecipIn,Conditions,Clouds,dailyrainin,SolarRadiationWatts/m^2,SoftwareType,DateUTC
2013-02-05 00:02:00,45.0,39.0,-100.00,WSW,244,4.0,8.0,79,0.00,,,0.02,0.000000,,2013-02-05 06:02:00,
2013-02-05 00:11:00,45.0,39.0,-100.00,WSW,244,4.0,8.0,79,0.00,,,0.02,0.000000,,2013-02-05 06:11:00,
2013-02-05 00:21:00,45.0,39.0,-100.00,WSW,244,4.0,8.0,79,0.00,,,0.02,0.000000,,2013-02-05 06:21:00,
2013-02-05 00:32:00,45.0,39.0,-100.00,WSW,244,4.0,8.0,79,0.00,,,0.02,0.000000,,2013-02-05 06:32:00,
2013-02-05 01:01:00,45.0,39.0,-100.00,WSW,238,4.0,8.0,80,0.00,,,0.02,0.000000,,2013-02-05 07:01:00,
2013-02-05 01:11:00,45.0,39.0,-100.00,WSW,238,4.0,8.0,80,0.00,,,0.02,0.000000,,2013-02-05 07:11:00,
2013-02-05 01:22:00,45.0,39.0,-100.00,WSW,238,4.0,8.0,80,0.00,,,0.02,0.000000,,2013-02-05 07:22:00,
2013-02-05 01:32:00,45.0,39.0,-100.00,WSW,238,4.0,8.0,80,0.00,,,0.02,0.000000,,2013-02-05 07:32:00,
2013-02-05 02:01:00,45.0,40.0,-100.00,WSW,255,3.0,8.0,81,0.00,,,0.02,0.000000,,2013-02-05 08:01:00,
2013-02-05 02:11:00,45.0,40.0,-100.00,WSW,255,3.0,8.0,81,0.00,,,0.02,0.000000,,2013-02-05 08:11:00,
2013-02-05 02:21:00,45.0,40.0,-100.00,WSW,255,3.0,8.0,81,0.00,,,0.02,0.000000,,2013-02-05 08:21:00,
2013-02-05 02:31:00,45.0,40.0,-100.00,WSW,255,3.0,8.0,81,0.00,,,0.02,0.000000,,2013-02-05 08:31:00,
2013-02-05 02:52:00,45.0,40.0,-100.00,West,269,3.0,9.0,83,0.00,,,0.02,0.000000,,2013-02-05 08:52:00,
2013-02-05 03:02:00,45.0,40.0,-100.00,West,269,3.0,9.0,83,0.00,,,0.02,0.000000,,2013-02-05 09:02:00,
2013-02-05 03:11:00,45.0,40.0,-100.00,West,269,3.0,9.0,83,0.00,,,0.02,0.000000,,2013-02-05 09:11:00,
2013-02-05 03:21:00,45.0,40.0,-100.00,West,269,3.0,9.0,83,0.00,,,0.02,0.000000,,2013-02-05 09:21:00,
2013-02-05 03:32:00,45.0,40.0,-100.00,West,269,3.0,9.0,83,0.00,,,0.02,0.000000,,2013-02-05 09:32:00,
2013-02-05 03:52:00,43.0,39.0,-100.00,WNW,288,4.0,8.0,87,0.00,,,0.02,0.000000,,2013-02-05 09:52:00,
2013-02-05 04:02:00,43.0,39.0,-100.00,WNW,288,4.0,8.0,87,0.00,,,0.02,0.000000,,2013-02-05 10:02:00,
2013-02-05 04:11:00,43.0,39.0,-100.00,WNW,288,4.0,8.0,87,0.00,,,0.02,0.000000,,2013-02-05 10:11:00,
2013-02-05 04:21:00,43.0,39.0,-100.00,WNW,288,4.0,8.0,87,0.00,,,0.02,0.000000,,2013-02-05 10:21:00,
2013-02-05 04:32:00,43.0,39.0,-100.00,WNW,288,4.0,8.0,87,0.00,,,0.02,0.000000,,2013-02-05 10:32:00,
2013-02-05 04:52:00,42.0,39.0,-100.00,West,270,1.0,7.0,90,0.00,,,0.02,0.000000,,2013-02-05 10:52:00,
2013-02-05 05:01:00,42.0,39.0,-100.00,West,270,1.0,7.0,90,0.00,,,0.02,0.000000,,2013-02-05 11:01:00,
2013-02-05 05:11:00,42.0,39.0,-100.00,West,270,1.0,7.0,90,0.00,,,0.02,0.000000,,2013-02-05 11:11:00,
2013-02-05 05:22:00,42.0,39.0,-100.00,West,270,1.0,7.0,90,0.00,,,0.02,0.000000,,2013-02-05 11:22:00,
2013-02-05 05:32:00,42.0,39.0,-100.00,West,270,1.0,7.0,90,0.00,,,0.02,0.000000,,2013-02-05 11:32:00,
2013-02-05 05:52:00,41.0,39.0,-100.00,WNW,286,1.0,4.0,91,0.00,,,0.02,0.000000,,2013-02-05 11:52:00,
2013-02-05 06:01:00,41.0,39.0,-100.00,WNW,286,1.0,4.0,91,0.00,,,0.02,0.000000,,2013-02-05 12:01:00,
2013-02-05 06:12:00,41.0,39.0,-100.00,WNW,286,1.0,4.0,91,0.00,,,0.02,0.000000,,2013-02-05 12:12:00,
2013-02-05 06:22:00,41.0,39.0,-100.00,WNW,286,1.0,4.0,91,0.00,,,0.02,0.000000,,2013-02-05 12:22:00,
2013-02-05 06:32:00,41.0,39.0,-100.00,WNW,286,1.0,4.0,91,0.00,,,0.02,0.000000,,2013-02-05 12:32:00,
2013-02-05 07:01:00,41.0,39.0,-100.00,NW,308,0.0,4.0,92,0.00,,,0.02,0.000000,,2013-02-05 13:01:00,
2013-02-05 07:12:00,41.0,39.0,-100.00,NW,308,0.0,4.0,92,0.00,,,0.02,0.000000,,2013-02-05 13:12:00,
2013-02-05 07:22:00,41.0,39.0,-100.00,NW,308,0.0,4.0,92,0.00,,,0.02,0.000000,,2013-02-05 13:22:00,
2013-02-05 07:32:00,41.0,39.0,-100.00,NW,308,0.0,4.0,92,0.00,,,0.02,0.000000,,2013-02-05 13:32:00,
2013-02-05 08:01:00,41.0,39.0,-100.00,WSW,253,1.0,2.0,93,0.00,,,0.02,5.000000,,2013-02-05 14:01:00,
2013-02-05 08:12:00,41.0,39.0,-100.00,WSW,253,1.0,2.0,93,0.00,,,0.02,5.000000,,2013-02-05 14:12:00,
2013-02-05 08:21:00,41.0,39.0,-100.00,WSW,253,1.0,2.0,93,0.00,,,0.02,5.000000,,2013-02-05 14:21:00,
2013-02-05 08:31:00,41.0,39.0,-100.00,WSW,253,1.0,2.0,93,0.00,,,0.02,5.000000,,2013-02-05 14:31:00,
2013-02-05 09:02:00,42.0,40.0,-100.00,West,279,3.0,7.0,91,0.00,,,0.02,42.000000,,2013-02-05 15:02:00,
2013-02-05 09:11:00,42.0,40.0,-100.00,West,279,3.0,7.0,91,0.00,,,0.02,42.000000,,2013-02-05 15:11:00,
2013-02-05 09:21:00,42.0,40.0,-100.00,West,279,3.0,7.0,91,0.00,,,0.02,42.000000,,2013-02-05 15:21:00,
2013-02-05 09:32:00,42.0,40.0,-100.00,West,279,3.0,7.0,91,0.00,,,0.02,42.000000,,2013-02-05 15:32:00,
2013-02-05 10:01:00,43.0,40.0,-100.00,West,278,3.0,6.0,89,0.00,,,0.02,104.000000,,2013-02-05 16:01:00,
2013-02-05 10:11:00,43.0,40.0,-100.00,West,278,3.0,6.0,89,0.00,,,0.02,104.000000,,2013-02-05 16:11:00,
2013-02-05 10:22:00,43.0,40.0,-100.00,West,278,3.0,6.0,89,0.00,,,0.02,104.000000,,2013-02-05 16:22:00,
2013-02-05 10:32:00,43.0,40.0,-100.00,West,278,3.0,6.0,89,0.00,,,0.02,104.000000,,2013-02-05 16:32:00,
2013-02-05 10:52:00,44.0,40.0,-100.00,WSW,255,4.0,7.0,87,0.00,,,-99.99,151.000000,,2013-02-05 16:52:00,
2013-02-05 11:01:00,44.0,40.0,-100.00,WSW,255,4.0,7.0,87,0.00,,,-99.99,151.000000,,2013-02-05 17:01:00,
2013-02-05 11:11:00,44.0,40.0,-100.00,WSW,255,4.0,7.0,87,0.00,,,-99.99,151.000000,,2013-02-05 17:11:00,
2013-02-05 11:22:00,44.0,40.0,-100.00,WSW,255,4.0,7.0,87,0.00,,,-99.99,151.000000,,2013-02-05 17:22:00,
2013-02-05 11:32:00,44.0,40.0,-100.00,WSW,255,4.0,7.0,87,0.00,,,-99.99,151.000000,,2013-02-05 17:32:00,
2013-02-05 12:02:00,46.0,41.0,-100.00,SSW,213,5.0,9.0,83,0.00,,,0.02,222.000000,,2013-02-05 18:02:00,
2013-02-05 12:11:00,46.0,41.0,-100.00,SSW,213,5.0,9.0,83,0.00,,,0.02,222.000000,,2013-02-05 18:11:00,
2013-02-05 12:22:00,46.0,41.0,-100.00,SSW,213,5.0,9.0,83,0.00,,,0.02,222.000000,,2013-02-05 18:22:00,
2013-02-05 12:32:00,46.0,41.0,-100.00,SSW,213,5.0,9.0,83,0.00,,,0.02,222.000000,,2013-02-05 18:32:00,
2013-02-05 13:02:00,52.0,41.0,-100.00,SSW,205,5.0,9.0,65,0.00,,,0.02,612.000000,,2013-02-05 19:02:00,
2013-02-05 13:11:00,52.0,41.0,-100.00,SSW,205,5.0,9.0,65,0.00,,,0.02,612.000000,,2013-02-05 19:11:00,
2013-02-05 13:21:00,52.0,41.0,-100.00,SSW,205,5.0,9.0,65,0.00,,,0.02,612.000000,,2013-02-05 19:21:00,
2013-02-05 13:32:00,52.0,41.0,-100.00,SSW,205,5.0,9.0,65,0.00,,,0.02,612.000000,,2013-02-05 19:32:00,
2013-02-05 13:52:00,56.0,39.0,-100.00,SW,229,6.0,11.0,53,0.00,,,0.02,638.000000,,2013-02-05 19:52:00,
2013-02-05 14:01:00,56.0,39.0,-100.00,SW,229,6.0,11.0,53,0.00,,,0.02,638.000000,,2013-02-05 20:01:00,
2013-02-05 14:11:00,56.0,39.0,-100.00,SW,229,6.0,11.0,53,0.00,,,0.02,638.000000,,2013-02-05 20:11:00,
2013-02-05 14:21:00,56.0,39.0,-100.00,SW,229,6.0,11.0,53,0.00,,,0.02,638.000000,,2013-02-05 20:21:00,
2013-02-05 14:32:00,56.0,39.0,-100.00,SW,229,6.0,11.0,53,0.00,,,0.02,638.000000,,2013-02-05 20:32:00,
2013-02-05 15:02:00,58.0,37.0,-100.00,WSW,245,5.0,11.0,46,0.00,,,0.02,533.000000,,2013-02-05 21:02:00,
2013-02-05 15:11:00,58.0,37.0,-100.00,WSW,245,5.0,11.0,46,0.00,,,0.02,533.000000,,2013-02-05 21:11:00,
2013-02-05 15:22:00,58.0,37.0,-100.00,WSW,245,5.0,11.0,46,0.00,,,0.02,533.000000,,2013-02-05 21:22:00,
2013-02-05 15:32:00,58.0,37.0,-100.00,WSW,245,5.0,11.0,46,0.00,,,0.02,533.000000,,2013-02-05 21:32:00,
2013-02-05 16:01:00,58.0,34.0,-100.00,SW,233,7.0,13.0,40,0.00,,,0.01,385.000000,,2013-02-05 22:01:00,
2013-02-05 16:11:00,58.0,34.0,-100.00,SW,233,7.0,13.0,40,0.00,,,0.01,385.000000,,2013-02-05 22:11:00,
2013-02-05 16:21:00,58.0,34.0,-100.00,SW,233,7.0,13.0,40,0.00,,,0.01,385.000000,,2013-02-05 22:21:00,
2013-02-05 16:32:00,58.0,34.0,-100.00,SW,233,7.0,13.0,40,0.00,,,0.01,385.000000,,2013-02-05 22:32:00,
2013-02-05 17:02:00,57.0,32.0,-100.00,WSW,255,5.0,12.0,39,0.00,,,0.01,214.000000,,2013-02-05 23:02:00,
2013-02-05 17:11:00,57.0,32.0,-100.00,WSW,255,5.0,12.0,39,0.00,,,0.01,214.000000,,2013-02-05 23:11:00,
2013-02-05 17:22:00,57.0,32.0,-100.00,WSW,255,5.0,12.0,39,0.00,,,0.01,214.000000,,2013-02-05 23:22:00,
2013-02-05 17:32:00,57.0,32.0,-100.00,WSW,255,5.0,12.0,39,0.00,,,0.01,214.000000,,2013-02-05 23:32:00,
2013-02-05 18:02:00,52.0,34.0,-100.00,WSW,255,4.0,11.0,50,0.00,,,0.00,30.000000,,2013-02-06 00:02:00,
2013-02-05 18:11:00,52.0,34.0,-100.00,WSW,255,4.0,11.0,50,0.00,,,0.00,30.000000,,2013-02-06 00:11:00,
2013-02-05 18:22:00,52.0,34.0,-100.00,WSW,255,4.0,11.0,50,0.00,,,0.00,30.000000,,2013-02-06 00:22:00,
2013-02-05 18:32:00,52.0,34.0,-100.00,WSW,255,4.0,11.0,50,0.00,,,0.00,30.000000,,2013-02-06 00:32:00,
2013-02-05 19:02:00,48.0,36.0,-100.00,WSW,257,2.0,5.0,62,0.00,,,0.00,0.000000,,2013-02-06 01:02:00,
2013-02-05 19:11:00,48.0,36.0,-100.00,WSW,257,2.0,5.0,62,0.00,,,0.00,0.000000,,2013-02-06 01:11:00,
2013-02-05 19:22:00,48.0,36.0,-100.00,WSW,257,2.0,5.0,62,0.00,,,0.00,0.000000,,2013-02-06 01:22:00,
2013-02-05 19:32:00,48.0,36.0,-100.00,WSW,257,2.0,5.0,62,0.00,,,0.00,0.000000,,2013-02-06 01:32:00,
2013-02-05 20:01:00,46.0,37.0,-100.00,WSW,248,3.0,5.0,70,0.00,,,0.00,0.000000,,2013-02-06 02:01:00,
2013-02-05 20:11:00,46.0,37.0,-100.00,WSW,248,3.0,5.0,70,0.00,,,0.00,0.000000,,2013-02-06 02:11:00,
2013-02-05 20:22:00,46.0,37.0,-100.00,WSW,248,3.0,5.0,70,0.00,,,0.00,0.000000,,2013-02-06 02:22:00,
2013-02-05 20:32:00,46.0,37.0,-100.00,WSW,248,3.0,5.0,70,0.00,,,0.00,0.000000,,2013-02-06 02:32:00,
2013-02-05 20:53:00,46.0,37.0,-100.00,WSW,253,3.0,5.0,72,0.00,,,0.00,0.000000,,2013-02-06 02:53:00,
2013-02-05 21:03:00,46.0,37.0,-100.00,WSW,253,3.0,5.0,72,0.00,,,0.00,0.000000,,2013-02-06 03:03:00,
2013-02-05 21:12:00,46.0,37.0,-100.00,WSW,253,3.0,5.0,72,0.00,,,0.00,0.000000,,2013-02-06 03:12:00,
2013-02-05 21:22:00,46.0,37.0,-100.00,WSW,253,3.0,5.0,72,0.00,,,0.00,0.000000,,2013-02-06 03:22:00,
2013-02-05 21:32:00,46.0,37.0,-100.00,WSW,253,3.0,5.0,72,0.00,,,0.00,0.000000,,2013-02-06 03:32:00,
2013-02-05 22:02:00,45.0,38.0,-100.00,WSW,258,3.0,5.0,77,0.00,,,0.00,0.000000,,2013-02-06 04:02:00,
2013-02-05 22:11:00,45.0,38.0,-100.00,WSW,258,3.0,5.0,77,0.00,,,0.00,0.000000,,2013-02-06 04:11:00,
2013-02-05 22:21:00,45.0,38.0,-100.00,WSW,258,3.0,5.0,77,0.00,,,0.00,0.000000,,2013-02-06 04:21:00,
2013-02-05 22:32:00,45.0,38.0,-100.00,WSW,258,3.0,5.0,77,0.00,,,0.00,0.000000,,2013-02-06 04:32:00,
2013-02-05 23:02:00,44.0,39.0,-100.00,West,273,4.0,7.0,81,0.00,,,0.00,0.000000,,2013-02-06 05:02:00,
2013-02-05 23:12:00,44.0,39.0,-100.00,West,273,4.0,7.0,81,0.00,,,0.00,0.000000,,2013-02-06 05:12:00,
2013-02-05 23:22:00,44.0,39.0,-100.00,West,273,4.0,7.0,81,0.00,,,0.00,0.000000,,2013-02-06 05:22:00,
2013-02-05 23:32:00,44.0,39.0,-100.00,West,273,4.0,7.0,81,0.00,,,0.00,0.000000,,2013-02-06 05:32:00,